Time;durP1;ratioP1;P1;durP2;ratioP2;P2;SDS_P1;SDS_P2;PMS_P1;PMS_P2;Temp;Humidity;BMP_temperature;BMP_pressure;BME280_temperature;BME280_humidity;BME280_pressure;Samples;Min_cycle;Max_cycle;Signal;HPM_P1;HPM_P2
2023/10/18 00:02:47;;;;;;;0.75;0.75;;;;;;;3.44;70.01;101446.28;15622317;28;20111;-53
2023/10/18 00:10:22;;;;;;;0.10;0.10;;;;;;;3.36;69.72;101452.34;15622339;28;20051;-52
2023/10/18 00:17:56;;;;;;;0.20;0.20;;;;;;;3.47;69.33;101454.78;15621664;28;20043;-50
2023/10/18 00:25:32;;;;;;;0.40;0.40;;;;;;;3.41;69.05;101458.03;15620790;28;20037;-51
2023/10/18 00:33:06;;;;;;;0.10;0.10;;;;;;;3.19;68.62;101451.28;15619766;28;20042;-49
2023/10/18 00:40:41;;;;;;;2.67;1.20;;;;;;;3.16;69.59;101451.53;15620218;28;20038;-50
2023/10/18 00:48:14;;;;;;;0.47;0.47;;;;;;;2.93;70.14;101450.22;15618411;28;20228;-51
2023/10/18 00:55:57;;;;;;;0.28;0.28;;;;;;;3.01;69.89;101437.91;15617429;28;20485;-50
2023/10/18 01:03:31;;;;;;;0.50;0.50;;;;;;;2.99;69.36;101426.63;15617708;28;20037;-52
2023/10/18 01:11:10;;;;;;;0.45;0.45;;;;;;;2.65;69.02;101422.78;15617848;28;20140;-50
2023/10/18 01:18:44;;;;;;;2.03;1.33;;;;;;;2.76;70.06;101412.03;15615927;28;20528;-51
2023/10/18 01:26:21;;;;;;;0.20;0.20;;;;;;;2.72;69.82;101416.78;15616656;28;20041;-49
2023/10/18 01:33:55;;;;;;;0.20;0.20;;;;;;;2.52;70.05;101367.44;15614753;28;20038;-52
2023/10/18 01:41:33;;;;;;;0.30;0.30;;;;;;;2.73;69.95;101401.72;15614650;28;20121;-52
2023/10/18 01:49:07;;;;;;;4.80;0.65;;;;;;;2.68;69.84;101388.03;15615196;28;20049;-50
2023/10/18 01:56:43;;;;;;;0.17;0.17;;;;;;;2.77;69.19;101385.38;15614383;28;20586;-51
2023/10/18 02:04:23;;;;;;;0.35;0.35;;;;;;;2.48;69.46;101353.66;15613750;28;20045;-51
2023/10/18 02:12:01;;;;;;;2.83;1.60;;;;;;;2.71;69.93;101367.41;15614784;28;20546;-50
2023/10/18 02:19:43;;;;;;;0.10;0.10;;;;;;;2.53;69.88;101363.81;15607145;28;20042;-50
2023/10/18 02:27:19;;;;;;;2.28;1.67;;;;;;;2.59;69.65;101367.69;15613555;28;20085;-51
2023/10/18 02:34:52;;;;;;;5.50;2.00;;;;;;;2.40;70.12;101356.16;15612463;28;20072;-48
2023/10/18 02:42:28;;;;;;;;;;;;;;;2.36;69.58;101362.72;15612859;28;20037;-50
2023/10/18 02:50:01;;;;;;;3.22;1.08;;;;;;;2.25;70.21;101366.34;15616367;28;19979;-50
2023/10/18 02:57:36;;;;;;;0.75;0.75;;;;;;;2.42;69.59;101351.53;15604794;28;20038;-51
2023/10/18 03:05:11;;;;;;;0.35;0.35;;;;;;;2.19;69.89;101356.34;15622694;28;20084;-50
2023/10/18 03:12:49;;;;;;;0.43;0.43;;;;;;;2.46;69.20;101344.97;15640217;28;20037;-50
2023/10/18 03:20:23;;;;;;;1.27;1.02;;;;;;;2.26;69.86;101346.84;15622512;28;20041;-50
2023/10/18 03:28:04;;;;;;;0.00;0.00;;;;;;;2.22;70.58;101340.16;15622497;28;20044;-52
2023/10/18 03:35:40;;;;;;;0.40;0.40;;;;;;;2.09;70.19;101341.41;15630393;28;20052;-51
2023/10/18 03:43:16;;;;;;;1.77;1.67;;;;;;;1.89;70.38;101343.22;15621089;28;20065;-51
2023/10/18 03:50:50;;;;;;;0.20;0.20;;;;;;;1.88;71.35;101330.97;15623015;28;20071;-52
2023/10/18 03:58:26;;;;;;;0.50;0.50;;;;;;;2.08;70.17;101337.94;15608758;28;20037;-51
2023/10/18 04:06:08;;;;;;;0.00;0.00;;;;;;;1.95;70.51;101317.03;15616848;28;20189;-49
2023/10/18 04:13:44;;;;;;;0.47;0.30;;;;;;;1.60;70.48;101269.13;15621633;28;20069;-52
2023/10/18 04:21:18;;;;;;;0.60;0.45;;;;;;;1.63;70.02;101271.47;15620771;28;20041;-51
2023/10/18 04:28:57;;;;;;;0.30;0.30;;;;;;;1.95;69.63;101303.78;15625427;28;20052;-52
2023/10/18 04:36:33;;;;;;;1.55;1.00;;;;;;;1.90;69.83;101294.59;15677204;22;20045;-50
2023/10/18 04:44:17;;;;;;;0.38;0.30;;;;;;;1.91;70.71;101289.19;15677522;28;20032;-48
2023/10/18 04:51:54;;;;;;;0.57;0.45;;;;;;;1.87;70.97;101284.31;15678575;28;20053;-46
2023/10/18 04:59:29;;;;;;;0.10;0.10;;;;;;;1.76;70.42;101295.84;15677109;28;20516;-46
2023/10/18 05:07:14;;;;;;;0.10;0.10;;;;;;;1.70;69.35;101291.13;15678079;28;20051;-49
2023/10/18 05:15:07;;;;;;;0.85;0.82;;;;;;;1.59;70.91;101249.78;15670770;28;20044;-47
2023/10/18 05:22:41;;;;;;;0.00;0.00;;;;;;;1.82;70.49;101297.09;15669456;28;20479;-45
2023/10/18 05:30:25;;;;;;;0.63;0.63;;;;;;;1.97;70.40;101301.03;15677627;28;20103;-50
2023/10/18 05:38:06;;;;;;;0.55;0.55;;;;;;;1.78;70.37;101305.34;15677685;28;20080;-46
2023/10/18 05:45:43;;;;;;;0.10;0.10;;;;;;;1.82;70.78;101315.63;15676444;28;20063;-47
2023/10/18 05:53:20;;;;;;;0.57;0.57;;;;;;;1.69;71.46;101306.19;15676394;28;20223;-50
2023/10/18 06:00:56;;;;;;;3.85;1.23;;;;;;;1.78;71.45;101291.28;15675489;28;20409;-50
2023/10/18 06:08:31;;;;;;;0.17;0.17;;;;;;;2.07;70.93;101279.81;15675044;28;20494;-48
2023/10/18 06:16:19;;;;;;;0.28;0.28;;;;;;;2.17;71.00;101278.00;15668186;28;20124;-47
2023/10/18 06:23:59;;;;;;;0.20;0.20;;;;;;;2.42;71.06;101268.56;15666414;28;20045;-48
2023/10/18 06:31:39;;;;;;;0.00;0.00;;;;;;;2.45;71.33;101263.84;15673418;28;20044;-47
2023/10/18 06:39:24;;;;;;;3.30;1.95;;;;;;;2.65;72.78;101274.34;15684045;28;20041;-49
2023/10/18 06:47:01;;;;;;;0.80;0.38;;;;;;;3.13;72.50;101268.84;15685202;28;20568;-48
2023/10/18 06:54:38;;;;;;;0.25;0.25;;;;;;;3.53;72.25;101272.88;15682665;28;20057;-45
2023/10/18 07:02:13;;;;;;;0.00;0.00;;;;;;;5.03;69.68;101268.22;15683834;28;20049;-47
2023/10/18 07:09:49;;;;;;;0.73;0.55;;;;;;;5.92;67.54;101278.22;15683576;28;20041;-49
2023/10/18 07:17:24;;;;;;;0.13;0.13;;;;;;;6.79;66.31;101257.91;15680846;28;20099;-50
2023/10/18 07:24:59;;;;;;;2.08;0.77;;;;;;;6.14;69.77;101263.41;15682376;28;20044;-49
2023/10/18 07:32:33;;;;;;;0.38;0.25;;;;;;;6.60;69.87;101272.47;15676211;28;20053;-49
2023/10/18 07:40:10;;;;;;;3.97;2.45;;;;;;;7.09;68.41;101258.97;15676732;28;20462;-48
2023/10/18 07:47:45;;;;;;;0.60;0.45;;;;;;;7.12;70.13;101241.75;15680205;28;20110;-49
2023/10/18 07:55:18;;;;;;;0.30;0.30;;;;;;;8.30;66.73;101247.53;15681330;28;20477;-50
2023/10/18 08:02:53;;;;;;;0.05;0.05;;;;;;;8.34;67.15;101227.38;15681986;28;20037;-49
2023/10/18 08:10:32;;;;;;;0.30;0.30;;;;;;;8.77;66.55;101229.47;15681902;28;20127;-47
2023/10/18 08:18:15;;;;;;;0.98;0.77;;;;;;;8.45;68.44;101226.16;15681050;28;20460;-49
2023/10/18 08:25:51;;;;;;;3.13;1.00;;;;;;;8.93;67.88;101223.91;15662043;28;20486;-47
2023/10/18 08:33:26;;;;;;;0.05;0.05;;;;;;;9.78;65.37;101225.81;15672747;28;20116;-49
2023/10/18 08:41:11;;;;;;;0.10;0.10;;;;;;;9.45;64.54;101218.28;15676651;28;20052;-46
2023/10/18 08:48:50;;;;;;;0.88;0.70;;;;;;;10.17;64.33;101211.06;15670818;28;20513;-47
2023/10/18 08:56:32;;;;;;;1.38;0.73;;;;;;;10.49;61.98;101209.63;15676624;28;20048;-46
2023/10/18 09:04:07;;;;;;;1.63;1.15;;;;;;;10.46;61.74;101199.31;15676413;28;20090;-48
2023/10/18 09:11:47;;;;;;;1.65;0.95;;;;;;;10.66;61.84;101194.84;15675986;28;20033;-51
2023/10/18 09:19:27;;;;;;;2.67;1.58;;;;;;;11.30;59.52;101184.72;15676949;28;20559;-47
2023/10/18 09:27:02;;;;;;;0.05;0.05;;;;;;;12.13;59.25;101180.63;15670618;28;20506;-47
2023/10/18 09:34:38;;;;;;;;;;;;;;;12.68;55.92;101169.47;15670379;28;20402;-46
2023/10/18 09:42:15;;;;;;;0.00;0.00;;;;;;;12.77;54.77;101169.03;15668947;28;19942;-51
2023/10/18 09:49:51;;;;;;;0.20;0.20;;;;;;;12.68;54.34;101154.19;15670981;28;20047;-46
2023/10/18 09:57:24;;;;;;;0.98;0.45;;;;;;;13.40;52.22;101160.22;15673599;28;20063;-46
2023/10/18 10:05:11;;;;;;;0.15;0.15;;;;;;;13.78;50.28;101137.69;15674431;28;20048;-48
2023/10/18 10:12:46;;;;;;;0.70;0.52;;;;;;;13.74;49.76;101134.59;15669527;28;20155;-53
2023/10/18 10:20:22;;;;;;;2.45;0.63;;;;;;;13.76;47.98;101129.00;15672700;28;20076;-46
2023/10/18 10:28:14;;;;;;;0.98;0.65;;;;;;;13.92;48.10;101125.72;15673195;28;20543;-51
2023/10/18 10:35:53;;;;;;;0.75;0.63;;;;;;;14.93;46.00;101123.53;15632480;22;20060;-50
2023/10/18 10:43:26;;;;;;;0.25;0.25;;;;;;;14.28;43.38;101099.81;15597407;28;20049;-47
2023/10/18 10:51:11;;;;;;;0.98;0.50;;;;;;;15.21;41.69;101095.88;15611111;28;20321;-48
2023/10/18 10:58:54;;;;;;;0.98;0.45;;;;;;;15.56;40.42;101079.66;15608185;28;20041;-50
2023/10/18 11:06:32;;;;;;;0.10;0.10;;;;;;;15.48;40.04;101070.03;15610707;28;20121;-49
2023/10/18 11:14:07;;;;;;;0.10;0.10;;;;;;;15.73;39.40;101059.00;15610754;28;20045;-50
2023/10/18 11:21:43;;;;;;;0.00;0.00;;;;;;;15.46;38.83;101052.38;15613501;28;20038;-48
2023/10/18 11:29:24;;;;;;;0.08;0.08;;;;;;;16.12;38.58;101040.31;15620740;28;20084;-48
2023/10/18 11:37:02;;;;;;;0.05;0.05;;;;;;;16.58;38.58;101025.78;15621743;28;20403;-49
2023/10/18 11:44:36;;;;;;;0.00;0.00;;;;;;;15.98;38.46;101020.00;15614168;28;20383;-48
2023/10/18 11:52:17;;;;;;;0.15;0.15;;;;;;;15.89;39.48;100973.50;15620937;28;20053;-49
2023/10/18 11:59:51;;;;;;;2.83;1.17;;;;;;;16.16;38.81;101000.88;15604504;28;20038;-51
2023/10/18 12:07:26;;;;;;;0.35;0.32;;;;;;;15.54;39.68;100974.38;15603139;28;20046;-46
2023/10/18 12:15:06;;;;;;;0.15;0.13;;;;;;;15.73;40.25;100971.56;15621929;28;20044;-48
2023/10/18 12:22:43;;;;;;;0.00;0.00;;;;;;;15.29;41.10;100966.53;15624661;28;20158;-50
2023/10/18 12:30:27;;;;;;;0.00;0.00;;;;;;;15.09;41.75;100954.41;15633077;28;20513;-51
2023/10/18 12:38:12;;;;;;;0.85;0.65;;;;;;;15.85;40.40;100933.63;15622850;28;20077;-51
2023/10/18 12:45:49;;;;;;;0.20;0.20;;;;;;;15.68;40.88;100931.69;15610536;28;20121;-46
2023/10/18 12:53:41;;;;;;;0.30;0.30;;;;;;;16.41;38.28;100916.53;15600896;28;20041;-47
2023/10/18 13:01:15;;;;;;;;;;;;;;;15.42;41.19;100907.81;15600558;28;20042;-49
2023/10/18 13:08:56;;;;;;;0.00;0.00;;;;;;;15.11;41.51;100892.81;15619377;28;19921;-48
2023/10/18 13:16:31;;;;;;;0.22;0.22;;;;;;;14.87;41.76;100882.00;15594713;28;20091;-49
2023/10/18 13:24:16;;;;;;;0.22;0.17;;;;;;;14.07;42.91;100877.03;15615188;28;20041;-48
2023/10/18 13:31:52;;;;;;;0.20;0.20;;;;;;;14.41;43.81;100855.75;15594183;28;20045;-49
2023/10/18 13:39:28;;;;;;;0.43;0.32;;;;;;;13.32;44.70;100842.34;15596728;28;20054;-49
2023/10/18 13:47:01;;;;;;;0.00;0.00;;;;;;;13.14;45.80;100832.34;15616945;28;20045;-49
2023/10/18 13:54:36;;;;;;;0.40;0.35;;;;;;;13.20;45.73;100827.97;15614294;28;20121;-47
2023/10/18 14:02:17;;;;;;;0.20;0.20;;;;;;;12.95;46.87;100826.13;15614542;28;20045;-45
2023/10/18 14:09:55;;;;;;;0.00;0.00;;;;;;;12.74;47.52;100819.31;15616180;28;20244;-47
2023/10/18 14:17:29;;;;;;;0.05;0.05;;;;;;;12.64;47.64;100796.66;15595976;28;20037;-49
2023/10/18 14:25:07;;;;;;;0.25;0.25;;;;;;;13.12;47.51;100794.03;15614156;28;20044;-47
2023/10/18 14:32:42;;;;;;;0.03;0.03;;;;;;;12.46;48.76;100782.09;15605497;28;20083;-50
2023/10/18 14:40:23;;;;;;;0.20;0.20;;;;;;;12.76;48.51;100779.50;15608086;28;20042;-49
2023/10/18 14:47:57;;;;;;;1.45;1.35;;;;;;;12.84;48.95;100762.22;15610883;28;20041;-49
2023/10/18 14:55:31;;;;;;;0.77;0.77;;;;;;;12.48;49.20;100715.38;15596302;28;20052;-50
2023/10/18 15:03:06;;;;;;;0.22;0.22;;;;;;;12.12;51.06;100740.34;15622915;28;20033;-48
2023/10/18 15:10:46;;;;;;;0.00;0.00;;;;;;;12.02;51.75;100726.59;15621084;28;20053;-49
2023/10/18 15:18:22;;;;;;;0.08;0.08;;;;;;;12.12;52.06;100708.06;15622899;28;20512;-50
2023/10/18 15:26:02;;;;;;;0.00;0.00;;;;;;;11.96;52.28;100717.53;15621852;28;20072;-50
2023/10/18 15:33:39;;;;;;;0.17;0.17;;;;;;;11.90;52.63;100707.66;15623609;28;20041;-49
2023/10/18 15:41:14;;;;;;;0.38;0.38;;;;;;;11.53;53.06;100695.09;15621823;28;20238;-48
2023/10/18 15:48:50;;;;;;;2.63;0.43;;;;;;;11.65;53.15;100696.84;15621459;28;20053;-51
2023/10/18 15:56:26;;;;;;;0.30;0.30;;;;;;;11.61;53.79;100687.59;15619417;28;20068;-50
2023/10/18 16:03:59;;;;;;;0.00;0.00;;;;;;;10.66;56.36;100657.13;15619901;28;20041;-52
2023/10/18 16:11:33;;;;;;;0.00;0.00;;;;;;;10.40;57.27;100674.97;15617437;28;20048;-52
2023/10/18 16:19:10;;;;;;;0.25;0.20;;;;;;;10.39;57.27;100659.06;15619211;28;20049;-51
2023/10/18 16:26:48;;;;;;;0.20;0.20;;;;;;;9.83;58.88;100662.22;15619085;28;20067;-51
2023/10/18 16:34:22;;;;;;;1.10;0.75;;;;;;;10.50;56.72;100652.25;15621883;28;20476;-50
2023/10/18 16:41:57;;;;;;;0.28;0.28;;;;;;;9.83;58.11;100657.69;15618311;28;20209;-51
2023/10/18 16:49:30;;;;;;;0.40;0.40;;;;;;;9.91;58.20;100643.25;15594588;28;20049;-50
2023/10/18 16:57:05;;;;;;;0.00;0.00;;;;;;;9.62;58.85;100647.19;15580630;28;20041;-53
2023/10/18 17:04:38;;;;;;;0.10;0.10;;;;;;;9.57;58.97;100644.31;15596799;28;20099;-54
2023/10/18 17:12:13;;;;;;;;;;;;;;;9.79;58.50;100643.09;15599656;28;20486;-52
2023/10/18 17:19:47;;;;;;;0.63;0.63;;;;;;;9.43;59.24;100630.91;15618963;28;19921;-49
2023/10/18 17:27:23;;;;;;;0.00;0.00;;;;;;;9.46;58.16;100626.97;15609572;28;20133;-52
2023/10/18 17:34:56;;;;;;;2.53;0.57;;;;;;;9.80;57.25;100614.41;15608274;28;20052;-49
2023/10/18 17:42:32;;;;;;;2.30;1.23;;;;;;;9.59;57.45;100608.22;15599233;28;20053;-52
2023/10/18 17:50:09;;;;;;;0.20;0.20;;;;;;;8.86;59.23;100592.13;15613888;28;20098;-49
2023/10/18 17:57:44;;;;;;;0.05;0.05;;;;;;;8.77;59.81;100589.84;15619892;28;20068;-52
2023/10/18 18:05:17;;;;;;;0.70;0.70;;;;;;;9.33;57.83;100576.09;15597527;28;20056;-50
2023/10/18 18:12:53;;;;;;;1.02;0.93;;;;;;;9.29;58.10;100574.88;15621807;28;20493;-49
2023/10/18 18:20:28;;;;;;;0.82;0.73;;;;;;;8.99;59.24;100569.06;15598653;28;20053;-49
2023/10/18 18:28:03;;;;;;;0.05;0.05;;;;;;;8.68;59.87;100549.88;15622451;28;20071;-52
2023/10/18 18:35:36;;;;;;;0.88;0.52;;;;;;;8.79;59.70;100547.63;15596899;28;20049;-48
2023/10/18 18:43:11;;;;;;;0.00;0.00;;;;;;;8.95;59.48;100539.19;15599909;28;20483;-54
2023/10/18 18:50:45;;;;;;;2.00;0.55;;;;;;;8.78;59.98;100540.63;15603952;28;20049;-49
2023/10/18 18:58:20;;;;;;;0.30;0.30;;;;;;;8.70;60.34;100528.25;15613375;28;20050;-50
2023/10/18 19:05:54;;;;;;;0.82;0.63;;;;;;;8.40;60.62;100501.84;15614716;28;20041;-49
2023/10/18 19:13:29;;;;;;;;;;;;;;;8.61;60.42;100500.84;15601053;28;20053;-49
2023/10/18 19:21:06;;;;;;;0.05;0.05;;;;;;;8.80;60.13;100499.25;15607611;28;20103;-47
2023/10/18 19:28:44;;;;;;;0.03;0.03;;;;;;;8.78;60.08;100503.16;15592448;28;20045;-48
2023/10/18 19:36:18;;;;;;;0.28;0.20;;;;;;;8.12;62.66;100498.44;15606247;28;20520;-49
2023/10/18 19:43:53;;;;;;;0.00;0.00;;;;;;;8.39;62.04;100491.34;15588893;28;20041;-51
2023/10/18 19:51:26;;;;;;;0.13;0.13;;;;;;;8.03;63.17;100480.94;15604033;28;20050;-49
2023/10/18 19:59:01;;;;;;;0.20;0.20;;;;;;;7.80;63.38;100484.75;15628310;28;20068;-52
2023/10/18 20:06:36;;;;;;;0.00;0.00;;;;;;;7.88;63.67;100483.72;15604003;28;20073;-50
2023/10/18 20:14:11;;;;;;;0.35;0.35;;;;;;;7.30;65.43;100476.03;15620165;28;20057;-51
2023/10/18 20:21:45;;;;;;;0.20;0.20;;;;;;;7.76;63.99;100461.28;15611957;28;20083;-50
2023/10/18 20:29:19;;;;;;;;;;;;;;;7.94;63.02;100456.22;15607692;28;20048;-48
2023/10/18 20:36:53;;;;;;;0.00;0.00;;;;;;;8.12;62.67;100432.44;15618206;28;19921;-48
2023/10/18 20:44:31;;;;;;;0.00;0.00;;;;;;;7.55;64.27;100422.13;15621324;28;20041;-48
2023/10/18 20:52:11;;;;;;;0.35;0.35;;;;;;;7.31;65.17;100407.44;15612500;28;20084;-50
2023/10/18 20:59:48;;;;;;;0.35;0.28;;;;;;;6.91;66.30;100383.19;15607514;28;20041;-50
2023/10/18 21:07:24;;;;;;;0.00;0.00;;;;;;;7.24;65.88;100394.06;15617626;28;20502;-51
2023/10/18 21:14:59;;;;;;;0.60;0.30;;;;;;;7.39;64.87;100385.91;15617349;28;20439;-52
2023/10/18 21:22:33;;;;;;;0.15;0.15;;;;;;;7.46;64.81;100369.91;15617744;28;20103;-52
2023/10/18 21:30:11;;;;;;;1.88;0.98;;;;;;;7.57;64.52;100353.34;15593732;28;20065;-50
2023/10/18 21:37:45;;;;;;;0.45;0.45;;;;;;;7.44;64.77;100340.75;15608573;28;20045;-51
2023/10/18 21:45:20;;;;;;;0.22;0.22;;;;;;;7.33;65.35;100327.97;15597780;28;20040;-52
2023/10/18 21:52:53;;;;;;;2.45;0.55;;;;;;;7.19;65.66;100303.06;15615002;28;20045;-50
2023/10/18 22:00:42;;;;;;;0.22;0.22;;;;;;;7.21;65.72;100289.50;15619165;28;20445;-51
2023/10/18 22:08:16;;;;;;;0.00;0.00;;;;;;;7.33;65.41;100296.75;15617437;28;20049;-52
2023/10/18 22:15:59;;;;;;;0.65;0.63;;;;;;;7.56;64.62;100275.06;15596766;28;20400;-51
2023/10/18 22:23:35;;;;;;;0.00;0.00;;;;;;;7.14;65.64;100252.13;15595472;28;20099;-49
2023/10/18 22:31:12;;;;;;;0.10;0.10;;;;;;;7.21;66.06;100244.13;15609959;28;20052;-53
2023/10/18 22:38:46;;;;;;;3.05;0.68;;;;;;;7.43;65.11;100248.31;15677620;23;20334;-50
2023/10/18 22:46:34;;;;;;;0.77;0.65;;;;;;;7.24;65.77;100238.41;15674401;28;20120;-51
2023/10/18 22:54:09;;;;;;;0.52;0.52;;;;;;;7.47;65.00;100209.50;15671852;28;20377;-48
2023/10/18 23:01:46;;;;;;;0.00;0.00;;;;;;;7.01;66.29;100204.88;15665810;28;20041;-48
2023/10/18 23:09:24;;;;;;;0.47;0.47;;;;;;;7.11;66.39;100183.13;15673001;28;20132;-49
2023/10/18 23:17:15;;;;;;;0.70;0.70;;;;;;;7.23;66.14;100156.66;15675795;28;20048;-49
2023/10/18 23:28:13;;;;;;;0.35;0.35;;;;;;;6.78;67.36;100138.50;15674705;28;20094;-47
2023/10/18 23:32:54;;;;;;;;;;;;;;;7.03;66.63;100120.09;15685704;28;20033;-48
2023/10/18 23:40:41;;;;;;;0.15;0.15;;;;;;;6.98;66.63;100113.72;15683902;28;20596;-51
2023/10/18 23:56:10;;;;;;;0.28;0.28;;;;;;;6.87;67.18;100091.13;15679378;28;20052;-50
